sensor_id;sensor_type;location;lat;lon;timestamp;P1;durP1;ratioP1;P2;durP2;ratioP2
2784;SDS011;57944;48.722;9.316;2023-06-24T00:02:13;9.30;;;6.50;;
2784;SDS011;57944;48.722;9.316;2023-06-24T00:04:43;12.17;;;7.20;;
2784;SDS011;57944;48.722;9.316;2023-06-24T00:07:17;12.43;;;7.67;;
2784;SDS011;57944;48.722;9.316;2023-06-24T00:09:49;14.23;;;8.07;;
2784;SDS011;57944;48.722;9.316;2023-06-24T00:12:19;11.77;;;7.80;;
2784;SDS011;57944;48.722;9.316;2023-06-24T00:14:50;11.93;;;7.07;;
2784;SDS011;57944;48.722;9.316;2023-06-24T00:17:21;10.93;;;8.13;;
2784;SDS011;57944;48.722;9.316;2023-06-24T00:19:52;10.53;;;6.97;;
2784;SDS011;57944;48.722;9.316;2023-06-24T00:22:25;9.47;;;7.63;;
2784;SDS011;57944;48.722;9.316;2023-06-24T00:24:56;10.90;;;8.23;;
2784;SDS011;57944;48.722;9.316;2023-06-24T00:27:27;10.57;;;7.37;;
2784;SDS011;57944;48.722;9.316;2023-06-24T00:29:57;14.00;;;7.17;;
2784;SDS011;57944;48.722;9.316;2023-06-24T00:32:28;9.30;;;6.67;;
2784;SDS011;57944;48.722;9.316;2023-06-24T00:34:58;15.07;;;7.67;;
2784;SDS011;57944;48.722;9.316;2023-06-24T00:37:32;9.80;;;8.10;;
2784;SDS011;57944;48.722;9.316;2023-06-24T00:40:04;9.83;;;7.40;;
2784;SDS011;57944;48.722;9.316;2023-06-24T00:42:37;9.70;;;7.33;;
2784;SDS011;57944;48.722;9.316;2023-06-24T00:45:08;11.27;;;7.97;;
2784;SDS011;57944;48.722;9.316;2023-06-24T00:47:40;9.20;;;6.87;;
2784;SDS011;57944;48.722;9.316;2023-06-24T00:50:11;13.57;;;7.43;;
2784;SDS011;57944;48.722;9.316;2023-06-24T00:52:44;12.50;;;8.37;;
2784;SDS011;57944;48.722;9.316;2023-06-24T00:55:16;13.07;;;8.30;;
2784;SDS011;57944;48.722;9.316;2023-06-24T00:57:47;9.97;;;6.80;;
2784;SDS011;57944;48.722;9.316;2023-06-24T01:00:21;12.30;;;7.83;;
2784;SDS011;57944;48.722;9.316;2023-06-24T01:02:53;15.40;;;8.50;;
2784;SDS011;57944;48.722;9.316;2023-06-24T01:05:25;12.47;;;8.90;;
2784;SDS011;57944;48.722;9.316;2023-06-24T01:08:04;10.00;;;7.50;;
2784;SDS011;57944;48.722;9.316;2023-06-24T01:10:36;11.83;;;8.90;;
2784;SDS011;57944;48.722;9.316;2023-06-24T01:13:06;11.27;;;7.03;;
2784;SDS011;57944;48.722;9.316;2023-06-24T01:15:37;11.73;;;8.13;;
2784;SDS011;57944;48.722;9.316;2023-06-24T01:18:09;12.60;;;7.80;;
2784;SDS011;57944;48.722;9.316;2023-06-24T01:20:49;12.97;;;7.83;;
2784;SDS011;57944;48.722;9.316;2023-06-24T01:26:43;11.87;;;8.13;;
2784;SDS011;57944;48.722;9.316;2023-06-24T01:29:36;10.70;;;8.20;;
2784;SDS011;57944;48.722;9.316;2023-06-24T01:32:28;10.87;;;8.23;;
2784;SDS011;57944;48.722;9.316;2023-06-24T01:35:05;12.57;;;8.93;;
2784;SDS011;57944;48.722;9.316;2023-06-24T01:37:41;11.77;;;8.93;;
2784;SDS011;57944;48.722;9.316;2023-06-24T01:40:15;9.90;;;8.10;;
2784;SDS011;57944;48.722;9.316;2023-06-24T01:42:52;14.90;;;8.60;;
2784;SDS011;57944;48.722;9.316;2023-06-24T01:45:26;12.27;;;8.87;;
2784;SDS011;57944;48.722;9.316;2023-06-24T01:48:06;12.90;;;9.77;;
2784;SDS011;57944;48.722;9.316;2023-06-24T01:50:43;11.00;;;8.20;;
2784;SDS011;57944;48.722;9.316;2023-06-24T01:53:17;12.70;;;9.30;;
2784;SDS011;57944;48.722;9.316;2023-06-24T01:55:50;11.60;;;8.93;;
2784;SDS011;57944;48.722;9.316;2023-06-24T01:58:23;12.50;;;8.83;;
2784;SDS011;57944;48.722;9.316;2023-06-24T02:00:53;14.37;;;9.27;;
2784;SDS011;57944;48.722;9.316;2023-06-24T02:03:29;12.97;;;9.47;;
2784;SDS011;57944;48.722;9.316;2023-06-24T02:06:03;11.97;;;8.90;;
2784;SDS011;57944;48.722;9.316;2023-06-24T02:08:36;12.20;;;10.03;;
2784;SDS011;57944;48.722;9.316;2023-06-24T02:11:09;11.63;;;9.10;;
2784;SDS011;57944;48.722;9.316;2023-06-24T02:13:41;11.60;;;8.80;;
2784;SDS011;57944;48.722;9.316;2023-06-24T02:16:15;13.30;;;9.30;;
2784;SDS011;57944;48.722;9.316;2023-06-24T02:18:50;12.43;;;8.70;;
2784;SDS011;57944;48.722;9.316;2023-06-24T02:21:21;12.30;;;8.33;;
2784;SDS011;57944;48.722;9.316;2023-06-24T02:23:55;12.50;;;9.20;;
2784;SDS011;57944;48.722;9.316;2023-06-24T02:26:26;11.53;;;9.00;;
2784;SDS011;57944;48.722;9.316;2023-06-24T02:28:57;12.50;;;10.07;;
2784;SDS011;57944;48.722;9.316;2023-06-24T02:31:29;11.70;;;8.60;;
2784;SDS011;57944;48.722;9.316;2023-06-24T02:34:02;13.10;;;9.60;;
2784;SDS011;57944;48.722;9.316;2023-06-24T02:36:34;11.17;;;8.10;;
2784;SDS011;57944;48.722;9.316;2023-06-24T02:39:05;13.80;;;9.50;;
2784;SDS011;57944;48.722;9.316;2023-06-24T02:41:37;14.20;;;10.10;;
2784;SDS011;57944;48.722;9.316;2023-06-24T02:44:08;14.23;;;10.60;;
2784;SDS011;57944;48.722;9.316;2023-06-24T02:46:38;13.10;;;9.63;;
2784;SDS011;57944;48.722;9.316;2023-06-24T02:49:15;15.70;;;9.90;;
2784;SDS011;57944;48.722;9.316;2023-06-24T02:51:47;12.73;;;10.20;;
2784;SDS011;57944;48.722;9.316;2023-06-24T02:54:18;15.23;;;10.33;;
2784;SDS011;57944;48.722;9.316;2023-06-24T02:57:18;14.70;;;10.37;;
2784;SDS011;57944;48.722;9.316;2023-06-24T03:00:08;14.27;;;10.10;;
2784;SDS011;57944;48.722;9.316;2023-06-24T03:03:00;13.80;;;9.90;;
2784;SDS011;57944;48.722;9.316;2023-06-24T03:05:35;13.20;;;9.57;;
2784;SDS011;57944;48.722;9.316;2023-06-24T03:08:06;15.90;;;9.93;;
2784;SDS011;57944;48.722;9.316;2023-06-24T03:10:40;14.20;;;10.77;;
2784;SDS011;57944;48.722;9.316;2023-06-24T03:13:16;15.27;;;9.63;;
2784;SDS011;57944;48.722;9.316;2023-06-24T03:15:54;13.93;;;9.53;;
2784;SDS011;57944;48.722;9.316;2023-06-24T03:18:25;14.50;;;10.00;;
2784;SDS011;57944;48.722;9.316;2023-06-24T03:20:59;13.73;;;10.40;;
2784;SDS011;57944;48.722;9.316;2023-06-24T03:23:30;17.80;;;10.47;;
2784;SDS011;57944;48.722;9.316;2023-06-24T03:26:01;12.40;;;9.83;;
2784;SDS011;57944;48.722;9.316;2023-06-24T03:28:32;12.37;;;8.87;;
2784;SDS011;57944;48.722;9.316;2023-06-24T03:31:09;13.53;;;10.20;;
2784;SDS011;57944;48.722;9.316;2023-06-24T03:33:42;17.50;;;11.63;;
2784;SDS011;57944;48.722;9.316;2023-06-24T03:36:17;17.93;;;10.80;;
2784;SDS011;57944;48.722;9.316;2023-06-24T03:38:49;15.80;;;11.00;;
2784;SDS011;57944;48.722;9.316;2023-06-24T03:41:20;19.10;;;11.00;;
2784;SDS011;57944;48.722;9.316;2023-06-24T03:43:52;13.10;;;9.60;;
2784;SDS011;57944;48.722;9.316;2023-06-24T03:46:23;14.30;;;9.60;;
2784;SDS011;57944;48.722;9.316;2023-06-24T03:48:59;12.40;;;9.70;;
2784;SDS011;57944;48.722;9.316;2023-06-24T03:51:33;12.37;;;9.97;;
2784;SDS011;57944;48.722;9.316;2023-06-24T03:54:03;16.27;;;10.60;;
2784;SDS011;57944;48.722;9.316;2023-06-24T03:56:34;13.90;;;10.90;;
2784;SDS011;57944;48.722;9.316;2023-06-24T03:59:05;15.10;;;11.40;;
2784;SDS011;57944;48.722;9.316;2023-06-24T04:01:35;13.20;;;9.53;;
2784;SDS011;57944;48.722;9.316;2023-06-24T04:04:06;15.93;;;11.00;;
2784;SDS011;57944;48.722;9.316;2023-06-24T04:06:40;14.10;;;10.27;;
2784;SDS011;57944;48.722;9.316;2023-06-24T04:09:13;18.27;;;10.97;;
2784;SDS011;57944;48.722;9.316;2023-06-24T04:11:43;14.93;;;11.13;;
2784;SDS011;57944;48.722;9.316;2023-06-24T04:14:14;13.60;;;9.90;;
2784;SDS011;57944;48.722;9.316;2023-06-24T04:16:44;13.40;;;9.97;;
2784;SDS011;57944;48.722;9.316;2023-06-24T04:19:16;12.17;;;9.00;;
2784;SDS011;57944;48.722;9.316;2023-06-24T04:21:50;12.60;;;10.17;;
2784;SDS011;57944;48.722;9.316;2023-06-24T04:24:20;13.50;;;10.23;;
2784;SDS011;57944;48.722;9.316;2023-06-24T04:26:51;12.30;;;9.70;;
2784;SDS011;57944;48.722;9.316;2023-06-24T04:29:22;11.23;;;8.80;;
2784;SDS011;57944;48.722;9.316;2023-06-24T04:31:52;11.50;;;9.03;;
2784;SDS011;57944;48.722;9.316;2023-06-24T04:34:23;13.63;;;10.00;;
2784;SDS011;57944;48.722;9.316;2023-06-24T04:36:57;12.00;;;9.00;;
2784;SDS011;57944;48.722;9.316;2023-06-24T04:39:27;10.50;;;8.50;;
2784;SDS011;57944;48.722;9.316;2023-06-24T04:41:58;9.57;;;8.23;;
2784;SDS011;57944;48.722;9.316;2023-06-24T04:44:29;12.37;;;8.63;;
2784;SDS011;57944;48.722;9.316;2023-06-24T04:46:59;13.10;;;8.70;;
2784;SDS011;57944;48.722;9.316;2023-06-24T04:49:30;12.47;;;8.80;;
2784;SDS011;57944;48.722;9.316;2023-06-24T04:52:03;10.10;;;8.03;;
2784;SDS011;57944;48.722;9.316;2023-06-24T04:54:36;10.97;;;8.07;;
2784;SDS011;57944;48.722;9.316;2023-06-24T04:57:08;12.60;;;9.77;;
2784;SDS011;57944;48.722;9.316;2023-06-24T04:59:51;11.60;;;8.67;;
2784;SDS011;57944;48.722;9.316;2023-06-24T05:02:22;12.47;;;9.07;;
2784;SDS011;57944;48.722;9.316;2023-06-24T05:04:53;11.37;;;9.10;;
2784;SDS011;57944;48.722;9.316;2023-06-24T05:07:26;12.10;;;8.37;;
2784;SDS011;57944;48.722;9.316;2023-06-24T05:09:57;12.47;;;8.60;;
2784;SDS011;57944;48.722;9.316;2023-06-24T05:12:28;15.10;;;9.60;;
2784;SDS011;57944;48.722;9.316;2023-06-24T05:14:59;15.33;;;9.50;;
2784;SDS011;57944;48.722;9.316;2023-06-24T05:17:29;11.07;;;9.50;;
2784;SDS011;57944;48.722;9.316;2023-06-24T05:20:00;11.20;;;8.03;;
2784;SDS011;57944;48.722;9.316;2023-06-24T05:22:33;8.80;;;7.57;;
2784;SDS011;57944;48.722;9.316;2023-06-24T05:25:04;13.30;;;9.80;;
2784;SDS011;57944;48.722;9.316;2023-06-24T05:27:36;14.60;;;8.40;;
2784;SDS011;57944;48.722;9.316;2023-06-24T05:30:07;13.47;;;9.10;;
2784;SDS011;57944;48.722;9.316;2023-06-24T05:32:39;13.03;;;9.70;;
2784;SDS011;57944;48.722;9.316;2023-06-24T05:35:10;11.27;;;8.93;;
2784;SDS011;57944;48.722;9.316;2023-06-24T05:37:43;13.30;;;9.37;;
2784;SDS011;57944;48.722;9.316;2023-06-24T05:40:14;11.47;;;8.40;;
2784;SDS011;57944;48.722;9.316;2023-06-24T05:42:44;13.03;;;9.30;;
2784;SDS011;57944;48.722;9.316;2023-06-24T05:45:15;11.90;;;9.60;;
2784;SDS011;57944;48.722;9.316;2023-06-24T05:47:46;11.00;;;8.10;;
2784;SDS011;57944;48.722;9.316;2023-06-24T05:50:16;10.47;;;8.43;;
2784;SDS011;57944;48.722;9.316;2023-06-24T05:52:50;11.43;;;8.47;;
2784;SDS011;57944;48.722;9.316;2023-06-24T05:55:20;11.70;;;8.80;;
2784;SDS011;57944;48.722;9.316;2023-06-24T05:57:51;11.77;;;9.10;;
2784;SDS011;57944;48.722;9.316;2023-06-24T06:00:21;10.87;;;7.80;;
2784;SDS011;57944;48.722;9.316;2023-06-24T06:02:52;10.90;;;8.27;;
2784;SDS011;57944;48.722;9.316;2023-06-24T06:05:23;10.53;;;8.03;;
2784;SDS011;57944;48.722;9.316;2023-06-24T06:07:56;11.17;;;8.60;;
2784;SDS011;57944;48.722;9.316;2023-06-24T06:10:26;14.23;;;8.50;;
2784;SDS011;57944;48.722;9.316;2023-06-24T06:12:57;10.53;;;7.47;;
2784;SDS011;57944;48.722;9.316;2023-06-24T06:15:27;10.90;;;9.70;;
2784;SDS011;57944;48.722;9.316;2023-06-24T06:17:58;11.50;;;9.20;;
2784;SDS011;57944;48.722;9.316;2023-06-24T06:20:29;11.87;;;7.57;;
2784;SDS011;57944;48.722;9.316;2023-06-24T06:23:02;11.53;;;8.00;;
2784;SDS011;57944;48.722;9.316;2023-06-24T06:25:32;9.00;;;7.67;;
2784;SDS011;57944;48.722;9.316;2023-06-24T06:28:04;12.23;;;8.73;;
2784;SDS011;57944;48.722;9.316;2023-06-24T06:30:34;14.47;;;8.13;;
2784;SDS011;57944;48.722;9.316;2023-06-24T06:33:05;8.80;;;7.40;;
2784;SDS011;57944;48.722;9.316;2023-06-24T06:35:35;8.90;;;6.87;;
2784;SDS011;57944;48.722;9.316;2023-06-24T06:38:08;9.40;;;7.87;;
2784;SDS011;57944;48.722;9.316;2023-06-24T06:40:39;10.70;;;7.40;;
2784;SDS011;57944;48.722;9.316;2023-06-24T06:43:10;10.73;;;7.50;;
2784;SDS011;57944;48.722;9.316;2023-06-24T06:45:40;13.00;;;7.90;;
2784;SDS011;57944;48.722;9.316;2023-06-24T06:48:11;9.03;;;6.33;;
2784;SDS011;57944;48.722;9.316;2023-06-24T06:50:41;8.93;;;6.23;;
2784;SDS011;57944;48.722;9.316;2023-06-24T06:53:16;9.80;;;6.57;;
2784;SDS011;57944;48.722;9.316;2023-06-24T06:55:46;12.57;;;6.53;;
2784;SDS011;57944;48.722;9.316;2023-06-24T06:58:17;7.10;;;6.07;;
2784;SDS011;57944;48.722;9.316;2023-06-24T07:00:48;8.43;;;6.90;;
2784;SDS011;57944;48.722;9.316;2023-06-24T07:03:18;11.60;;;7.17;;
2784;SDS011;57944;48.722;9.316;2023-06-24T07:05:49;7.30;;;6.37;;
2784;SDS011;57944;48.722;9.316;2023-06-24T07:08:22;8.57;;;6.10;;
2784;SDS011;57944;48.722;9.316;2023-06-24T07:10:52;7.47;;;5.63;;
2784;SDS011;57944;48.722;9.316;2023-06-24T07:13:23;9.87;;;6.37;;
2784;SDS011;57944;48.722;9.316;2023-06-24T07:15:54;8.27;;;6.27;;
2784;SDS011;57944;48.722;9.316;2023-06-24T07:18:24;7.53;;;6.30;;
2784;SDS011;57944;48.722;9.316;2023-06-24T07:21:00;12.63;;;6.07;;
2784;SDS011;57944;48.722;9.316;2023-06-24T07:23:33;7.20;;;5.23;;
2784;SDS011;57944;48.722;9.316;2023-06-24T07:26:04;6.97;;;5.00;;
2784;SDS011;57944;48.722;9.316;2023-06-24T07:28:34;6.93;;;4.97;;
2784;SDS011;57944;48.722;9.316;2023-06-24T07:31:05;8.40;;;5.30;;
2784;SDS011;57944;48.722;9.316;2023-06-24T07:33:35;8.70;;;5.37;;
2784;SDS011;57944;48.722;9.316;2023-06-24T07:36:06;9.80;;;5.70;;
2784;SDS011;57944;48.722;9.316;2023-06-24T07:38:40;6.57;;;4.43;;
2784;SDS011;57944;48.722;9.316;2023-06-24T07:41:10;7.63;;;5.10;;
2784;SDS011;57944;48.722;9.316;2023-06-24T07:43:41;6.63;;;4.53;;
2784;SDS011;57944;48.722;9.316;2023-06-24T07:46:11;7.30;;;4.83;;
2784;SDS011;57944;48.722;9.316;2023-06-24T07:48:42;7.80;;;5.60;;
2784;SDS011;57944;48.722;9.316;2023-06-24T07:51:13;6.70;;;5.00;;
2784;SDS011;57944;48.722;9.316;2023-06-24T07:53:47;11.33;;;4.70;;
2784;SDS011;57944;48.722;9.316;2023-06-24T07:56:17;7.50;;;4.90;;
2784;SDS011;57944;48.722;9.316;2023-06-24T07:58:48;6.90;;;5.10;;
2784;SDS011;57944;48.722;9.316;2023-06-24T08:01:18;5.70;;;4.87;;
2784;SDS011;57944;48.722;9.316;2023-06-24T08:03:49;7.03;;;4.23;;
2784;SDS011;57944;48.722;9.316;2023-06-24T08:06:21;9.13;;;5.10;;
2784;SDS011;57944;48.722;9.316;2023-06-24T08:08:54;7.17;;;4.60;;
2784;SDS011;57944;48.722;9.316;2023-06-24T08:11:25;7.43;;;4.33;;
2784;SDS011;57944;48.722;9.316;2023-06-24T08:13:56;8.97;;;5.70;;
2784;SDS011;57944;48.722;9.316;2023-06-24T08:16:28;7.73;;;5.13;;
2784;SDS011;57944;48.722;9.316;2023-06-24T08:18:59;10.63;;;6.37;;
2784;SDS011;57944;48.722;9.316;2023-06-24T08:21:29;11.33;;;5.40;;
2784;SDS011;57944;48.722;9.316;2023-06-24T08:24:03;8.67;;;5.00;;
2784;SDS011;57944;48.722;9.316;2023-06-24T08:26:34;8.57;;;5.50;;
2784;SDS011;57944;48.722;9.316;2023-06-24T08:29:05;6.83;;;5.27;;
2784;SDS011;57944;48.722;9.316;2023-06-24T08:34:59;8.10;;;6.80;;
2784;SDS011;57944;48.722;9.316;2023-06-24T08:37:29;7.07;;;5.83;;
2784;SDS011;57944;48.722;9.316;2023-06-24T08:40:03;11.17;;;5.90;;
2784;SDS011;57944;48.722;9.316;2023-06-24T08:42:35;6.53;;;4.90;;
2784;SDS011;57944;48.722;9.316;2023-06-24T08:45:06;9.17;;;4.83;;
2784;SDS011;57944;48.722;9.316;2023-06-24T08:51:06;7.93;;;5.40;;
2784;SDS011;57944;48.722;9.316;2023-06-24T08:53:39;8.60;;;4.97;;
2784;SDS011;57944;48.722;9.316;2023-06-24T08:56:15;10.03;;;5.80;;
2784;SDS011;57944;48.722;9.316;2023-06-24T08:58:46;8.60;;;5.47;;
2784;SDS011;57944;48.722;9.316;2023-06-24T09:01:16;6.13;;;4.87;;
2784;SDS011;57944;48.722;9.316;2023-06-24T09:03:49;8.50;;;5.60;;
2784;SDS011;57944;48.722;9.316;2023-06-24T09:06:20;6.40;;;4.87;;
2784;SDS011;57944;48.722;9.316;2023-06-24T09:08:54;6.70;;;5.80;;
2784;SDS011;57944;48.722;9.316;2023-06-24T09:11:28;9.90;;;5.83;;
2784;SDS011;57944;48.722;9.316;2023-06-24T09:13:59;6.33;;;4.60;;
2784;SDS011;57944;48.722;9.316;2023-06-24T09:16:30;7.97;;;5.53;;
2784;SDS011;57944;48.722;9.316;2023-06-24T09:19:01;7.23;;;5.27;;
2784;SDS011;57944;48.722;9.316;2023-06-24T09:21:34;7.07;;;5.47;;
2784;SDS011;57944;48.722;9.316;2023-06-24T09:24:05;7.90;;;5.40;;
2784;SDS011;57944;48.722;9.316;2023-06-24T09:26:41;6.47;;;4.90;;
2784;SDS011;57944;48.722;9.316;2023-06-24T09:29:13;7.03;;;4.90;;
2784;SDS011;57944;48.722;9.316;2023-06-24T09:31:47;7.73;;;5.33;;
2784;SDS011;57944;48.722;9.316;2023-06-24T09:34:19;8.67;;;4.73;;
2784;SDS011;57944;48.722;9.316;2023-06-24T09:36:53;6.93;;;4.93;;
2784;SDS011;57944;48.722;9.316;2023-06-24T09:39:25;7.73;;;5.10;;
2784;SDS011;57944;48.722;9.316;2023-06-24T09:42:00;6.70;;;4.80;;
2784;SDS011;57944;48.722;9.316;2023-06-24T09:44:32;6.93;;;4.47;;
2784;SDS011;57944;48.722;9.316;2023-06-24T09:47:03;6.20;;;5.20;;
2784;SDS011;57944;48.722;9.316;2023-06-24T09:49:34;7.17;;;4.83;;
2784;SDS011;57944;48.722;9.316;2023-06-24T09:52:06;7.37;;;4.53;;
2784;SDS011;57944;48.722;9.316;2023-06-24T09:54:37;6.57;;;4.70;;
2784;SDS011;57944;48.722;9.316;2023-06-24T09:57:10;8.90;;;5.13;;
2784;SDS011;57944;48.722;9.316;2023-06-24T09:59:42;5.90;;;4.87;;
2784;SDS011;57944;48.722;9.316;2023-06-24T10:02:13;7.30;;;5.40;;
2784;SDS011;57944;48.722;9.316;2023-06-24T10:04:45;7.90;;;5.93;;
2784;SDS011;57944;48.722;9.316;2023-06-24T10:07:17;6.50;;;5.00;;
2784;SDS011;57944;48.722;9.316;2023-06-24T10:09:48;7.73;;;5.03;;
2784;SDS011;57944;48.722;9.316;2023-06-24T10:12:22;6.50;;;5.03;;
2784;SDS011;57944;48.722;9.316;2023-06-24T10:14:53;6.13;;;4.67;;
2784;SDS011;57944;48.722;9.316;2023-06-24T10:17:24;6.50;;;5.20;;
2784;SDS011;57944;48.722;9.316;2023-06-24T10:19:54;5.87;;;4.67;;
2784;SDS011;57944;48.722;9.316;2023-06-24T10:22:25;5.80;;;4.33;;
2784;SDS011;57944;48.722;9.316;2023-06-24T10:24:59;6.50;;;4.40;;
2784;SDS011;57944;48.722;9.316;2023-06-24T10:27:37;7.17;;;5.07;;
2784;SDS011;57944;48.722;9.316;2023-06-24T10:30:16;6.77;;;4.57;;
2784;SDS011;57944;48.722;9.316;2023-06-24T10:32:51;7.27;;;4.90;;
2784;SDS011;57944;48.722;9.316;2023-06-24T10:35:23;6.00;;;4.50;;
2784;SDS011;57944;48.722;9.316;2023-06-24T10:37:57;6.77;;;5.37;;
2784;SDS011;57944;48.722;9.316;2023-06-24T10:40:35;6.00;;;4.90;;
2784;SDS011;57944;48.722;9.316;2023-06-24T10:43:25;5.70;;;4.60;;
2784;SDS011;57944;48.722;9.316;2023-06-24T10:45:57;6.13;;;4.80;;
2784;SDS011;57944;48.722;9.316;2023-06-24T10:48:28;5.80;;;4.43;;
2784;SDS011;57944;48.722;9.316;2023-06-24T10:50:58;7.30;;;4.90;;
2784;SDS011;57944;48.722;9.316;2023-06-24T10:53:29;6.10;;;4.97;;
2784;SDS011;57944;48.722;9.316;2023-06-24T10:56:00;7.20;;;4.30;;
2784;SDS011;57944;48.722;9.316;2023-06-24T10:58:33;7.80;;;4.53;;
2784;SDS011;57944;48.722;9.316;2023-06-24T11:01:08;6.77;;;5.10;;
2784;SDS011;57944;48.722;9.316;2023-06-24T11:03:42;6.30;;;4.73;;
2784;SDS011;57944;48.722;9.316;2023-06-24T11:06:12;5.07;;;4.43;;
2784;SDS011;57944;48.722;9.316;2023-06-24T11:08:43;7.30;;;5.73;;
2784;SDS011;57944;48.722;9.316;2023-06-24T11:11:20;5.90;;;4.63;;
2784;SDS011;57944;48.722;9.316;2023-06-24T11:13:54;7.53;;;5.00;;
2784;SDS011;57944;48.722;9.316;2023-06-24T11:16:25;6.07;;;5.20;;
2784;SDS011;57944;48.722;9.316;2023-06-24T11:18:56;7.23;;;5.20;;
2784;SDS011;57944;48.722;9.316;2023-06-24T11:21:28;10.37;;;5.10;;
2784;SDS011;57944;48.722;9.316;2023-06-24T11:24:00;5.40;;;4.23;;
2784;SDS011;57944;48.722;9.316;2023-06-24T11:26:31;7.10;;;4.77;;
2784;SDS011;57944;48.722;9.316;2023-06-24T11:29:11;5.20;;;4.70;;
2784;SDS011;57944;48.722;9.316;2023-06-24T11:31:41;7.20;;;4.60;;
2784;SDS011;57944;48.722;9.316;2023-06-24T11:34:14;7.53;;;4.43;;
2784;SDS011;57944;48.722;9.316;2023-06-24T11:36:44;5.93;;;4.87;;
2784;SDS011;57944;48.722;9.316;2023-06-24T11:39:21;5.50;;;4.80;;
2784;SDS011;57944;48.722;9.316;2023-06-24T11:41:53;4.90;;;4.40;;
2784;SDS011;57944;48.722;9.316;2023-06-24T11:44:29;5.70;;;4.20;;
2784;SDS011;57944;48.722;9.316;2023-06-24T11:47:04;5.10;;;3.83;;
2784;SDS011;57944;48.722;9.316;2023-06-24T11:49:47;5.87;;;4.50;;
2784;SDS011;57944;48.722;9.316;2023-06-24T11:52:19;5.10;;;3.93;;
2784;SDS011;57944;48.722;9.316;2023-06-24T11:54:56;5.40;;;4.10;;
2784;SDS011;57944;48.722;9.316;2023-06-24T12:00:19;5.73;;;4.33;;
2784;SDS011;57944;48.722;9.316;2023-06-24T12:02:52;7.93;;;4.53;;
2784;SDS011;57944;48.722;9.316;2023-06-24T12:05:24;7.23;;;4.83;;
2784;SDS011;57944;48.722;9.316;2023-06-24T12:07:56;6.40;;;4.80;;
2784;SDS011;57944;48.722;9.316;2023-06-24T12:10:30;4.93;;;4.17;;
2784;SDS011;57944;48.722;9.316;2023-06-24T12:13:02;5.57;;;4.57;;
2784;SDS011;57944;48.722;9.316;2023-06-24T12:15:38;6.50;;;4.03;;
2784;SDS011;57944;48.722;9.316;2023-06-24T12:18:09;8.80;;;4.13;;
2784;SDS011;57944;48.722;9.316;2023-06-24T12:20:41;5.70;;;4.03;;
2784;SDS011;57944;48.722;9.316;2023-06-24T12:23:12;7.93;;;4.77;;
2784;SDS011;57944;48.722;9.316;2023-06-24T12:25:42;5.43;;;4.50;;
2784;SDS011;57944;48.722;9.316;2023-06-24T12:28:13;7.00;;;4.60;;
2784;SDS011;57944;48.722;9.316;2023-06-24T12:30:46;5.57;;;4.23;;
2784;SDS011;57944;48.722;9.316;2023-06-24T12:33:17;7.87;;;5.63;;
2784;SDS011;57944;48.722;9.316;2023-06-24T12:35:49;8.43;;;4.43;;
2784;SDS011;57944;48.722;9.316;2023-06-24T12:38:20;5.03;;;4.33;;
2784;SDS011;57944;48.722;9.316;2023-06-24T12:40:50;5.83;;;4.60;;
2784;SDS011;57944;48.722;9.316;2023-06-24T12:43:21;5.03;;;4.27;;
2784;SDS011;57944;48.722;9.316;2023-06-24T12:45:54;5.50;;;4.10;;
2784;SDS011;57944;48.722;9.316;2023-06-24T12:48:25;5.40;;;4.33;;
2784;SDS011;57944;48.722;9.316;2023-06-24T12:50:55;6.10;;;4.43;;
2784;SDS011;57944;48.722;9.316;2023-06-24T12:53:26;7.33;;;4.37;;
2784;SDS011;57944;48.722;9.316;2023-06-24T12:55:56;5.10;;;4.60;;
2784;SDS011;57944;48.722;9.316;2023-06-24T12:58:30;5.70;;;4.50;;
2784;SDS011;57944;48.722;9.316;2023-06-24T13:01:03;6.20;;;4.40;;
2784;SDS011;57944;48.722;9.316;2023-06-24T13:03:33;8.50;;;5.07;;
2784;SDS011;57944;48.722;9.316;2023-06-24T13:06:04;7.27;;;4.40;;
2784;SDS011;57944;48.722;9.316;2023-06-24T13:08:34;8.00;;;4.27;;
2784;SDS011;57944;48.722;9.316;2023-06-24T13:11:05;4.73;;;4.07;;
2784;SDS011;57944;48.722;9.316;2023-06-24T13:13:36;5.90;;;5.30;;
2784;SDS011;57944;48.722;9.316;2023-06-24T13:16:09;5.10;;;4.50;;
2784;SDS011;57944;48.722;9.316;2023-06-24T13:18:40;5.87;;;4.60;;
2784;SDS011;57944;48.722;9.316;2023-06-24T13:21:10;6.40;;;4.80;;
2784;SDS011;57944;48.722;9.316;2023-06-24T13:23:42;6.20;;;4.73;;
2784;SDS011;57944;48.722;9.316;2023-06-24T13:26:13;6.03;;;4.93;;
2784;SDS011;57944;48.722;9.316;2023-06-24T13:28:43;5.90;;;4.40;;
2784;SDS011;57944;48.722;9.316;2023-06-24T13:31:21;6.30;;;4.23;;
2784;SDS011;57944;48.722;9.316;2023-06-24T13:33:52;5.70;;;4.40;;
2784;SDS011;57944;48.722;9.316;2023-06-24T13:36:30;5.70;;;4.10;;
2784;SDS011;57944;48.722;9.316;2023-06-24T13:39:03;7.30;;;4.73;;
2784;SDS011;57944;48.722;9.316;2023-06-24T13:41:34;5.33;;;4.60;;
2784;SDS011;57944;48.722;9.316;2023-06-24T13:44:05;5.27;;;4.40;;
2784;SDS011;57944;48.722;9.316;2023-06-24T13:46:38;4.67;;;4.17;;
2784;SDS011;57944;48.722;9.316;2023-06-24T13:49:09;8.50;;;4.87;;
2784;SDS011;57944;48.722;9.316;2023-06-24T13:51:40;5.47;;;4.60;;
2784;SDS011;57944;48.722;9.316;2023-06-24T13:54:11;6.50;;;4.27;;
2784;SDS011;57944;48.722;9.316;2023-06-24T13:56:42;6.40;;;5.63;;
2784;SDS011;57944;48.722;9.316;2023-06-24T13:59:12;6.13;;;3.60;;
2784;SDS011;57944;48.722;9.316;2023-06-24T14:01:45;9.77;;;5.90;;
2784;SDS011;57944;48.722;9.316;2023-06-24T14:04:16;7.30;;;4.60;;
2784;SDS011;57944;48.722;9.316;2023-06-24T14:06:47;5.73;;;4.50;;
2784;SDS011;57944;48.722;9.316;2023-06-24T14:09:17;5.53;;;4.30;;
2784;SDS011;57944;48.722;9.316;2023-06-24T14:11:48;6.07;;;4.53;;
2784;SDS011;57944;48.722;9.316;2023-06-24T14:14:18;5.30;;;4.20;;
2784;SDS011;57944;48.722;9.316;2023-06-24T14:16:52;5.33;;;4.23;;
2784;SDS011;57944;48.722;9.316;2023-06-24T14:19:22;7.67;;;5.33;;
2784;SDS011;57944;48.722;9.316;2023-06-24T14:21:53;6.50;;;4.20;;
2784;SDS011;57944;48.722;9.316;2023-06-24T14:24:24;8.00;;;4.77;;
2784;SDS011;57944;48.722;9.316;2023-06-24T14:26:54;6.07;;;5.00;;
2784;SDS011;57944;48.722;9.316;2023-06-24T14:29:26;7.20;;;4.90;;
2784;SDS011;57944;48.722;9.316;2023-06-24T14:31:59;8.67;;;6.40;;
2784;SDS011;57944;48.722;9.316;2023-06-24T14:34:30;7.93;;;5.23;;
2784;SDS011;57944;48.722;9.316;2023-06-24T14:37:00;5.50;;;4.13;;
2784;SDS011;57944;48.722;9.316;2023-06-24T14:39:31;5.73;;;4.97;;
2784;SDS011;57944;48.722;9.316;2023-06-24T14:42:02;8.37;;;5.47;;
2784;SDS011;57944;48.722;9.316;2023-06-24T14:44:35;5.77;;;3.90;;
2784;SDS011;57944;48.722;9.316;2023-06-24T14:47:09;6.97;;;5.47;;
2784;SDS011;57944;48.722;9.316;2023-06-24T14:49:40;6.20;;;4.30;;
2784;SDS011;57944;48.722;9.316;2023-06-24T14:52:10;6.37;;;4.57;;
2784;SDS011;57944;48.722;9.316;2023-06-24T14:54:42;6.00;;;4.53;;
2784;SDS011;57944;48.722;9.316;2023-06-24T14:57:12;6.47;;;4.90;;
2784;SDS011;57944;48.722;9.316;2023-06-24T14:59:44;5.87;;;5.20;;
2784;SDS011;57944;48.722;9.316;2023-06-24T15:02:17;6.30;;;5.40;;
2784;SDS011;57944;48.722;9.316;2023-06-24T15:04:47;6.67;;;4.80;;
2784;SDS011;57944;48.722;9.316;2023-06-24T15:07:18;6.23;;;4.70;;
2784;SDS011;57944;48.722;9.316;2023-06-24T15:09:49;7.50;;;4.90;;
2784;SDS011;57944;48.722;9.316;2023-06-24T15:12:19;6.57;;;4.87;;
2784;SDS011;57944;48.722;9.316;2023-06-24T15:14:50;6.13;;;4.50;;
2784;SDS011;57944;48.722;9.316;2023-06-24T15:17:23;9.27;;;5.70;;
2784;SDS011;57944;48.722;9.316;2023-06-24T15:19:55;6.10;;;4.13;;
2784;SDS011;57944;48.722;9.316;2023-06-24T15:22:26;6.70;;;5.03;;
2784;SDS011;57944;48.722;9.316;2023-06-24T15:24:56;6.27;;;5.00;;
2784;SDS011;57944;48.722;9.316;2023-06-24T15:27:27;5.70;;;4.30;;
2784;SDS011;57944;48.722;9.316;2023-06-24T15:29:58;6.27;;;5.07;;
2784;SDS011;57944;48.722;9.316;2023-06-24T15:32:31;6.87;;;5.67;;
2784;SDS011;57944;48.722;9.316;2023-06-24T15:35:02;6.33;;;5.00;;
2784;SDS011;57944;48.722;9.316;2023-06-24T15:37:33;6.77;;;4.50;;
2784;SDS011;57944;48.722;9.316;2023-06-24T15:40:04;7.00;;;4.67;;